createdAt,value
2023-03-01T00:00:29.856Z,101713.45
2023-03-01T00:04:57.411Z,101715.67
2023-03-01T00:09:05.505Z,101722.45
2023-03-01T00:13:16.590Z,101723.48
2023-03-01T00:17:24.787Z,101724.90
2023-03-01T00:21:33.409Z,101719.52
2023-03-01T00:25:46.562Z,101717.85
2023-03-01T00:29:54.007Z,101712.80
2023-03-01T00:34:04.343Z,101711.20
2023-03-01T00:38:12.080Z,101700.86
2023-03-01T00:42:20.274Z,101698.65
2023-03-01T00:46:31.591Z,101698.23
2023-03-01T00:50:39.371Z,101694.81
2023-03-01T00:54:48.239Z,101687.83
2023-03-01T00:58:56.936Z,101680.63
2023-03-01T01:03:04.768Z,101673.75
2023-03-01T01:07:12.838Z,101672.89
2023-03-01T01:11:21.204Z,101675.92
2023-03-01T01:15:28.815Z,101674.71
2023-03-01T01:19:36.681Z,101668.21
2023-03-01T01:23:45.764Z,101667.06
2023-03-01T01:27:55.004Z,101666.63
2023-03-01T01:32:02.674Z,101661.97
2023-03-01T01:36:11.678Z,101652.13
2023-03-01T01:40:19.741Z,101648.03
2023-03-01T01:44:29.572Z,101645.31
2023-03-01T01:48:45.568Z,101645.19
2023-03-01T01:52:54.240Z,101637.48
2023-03-01T01:57:09.310Z,101633.51
2023-03-01T02:01:18.430Z,101633.15
2023-03-01T02:05:31.401Z,101629.27
2023-03-01T02:09:40.054Z,101627.27
2023-03-01T02:13:48.400Z,101627.44
2023-03-01T02:17:56.462Z,101627.13
2023-03-01T02:22:09.027Z,101633.58
2023-03-01T02:26:23.317Z,101630.19
2023-03-01T02:30:31.642Z,101626.21
2023-03-01T02:34:40.604Z,101618.89
2023-03-01T02:38:49.173Z,101619.23
2023-03-01T02:42:59.940Z,101617.98
2023-03-01T02:47:08.522Z,101620.48
2023-03-01T02:51:25.040Z,101631.11
2023-03-01T02:55:33.340Z,101636.30
2023-03-01T02:59:43.870Z,101639.23
2023-03-01T03:03:51.871Z,101638.56
2023-03-01T03:08:01.424Z,101640.36
2023-03-01T03:12:10.012Z,101644.58
2023-03-01T03:16:18.998Z,101645.25
2023-03-01T03:20:29.356Z,101642.42
2023-03-01T03:24:39.321Z,101630.46
2023-03-01T03:28:48.052Z,101625.05
2023-03-01T03:32:56.661Z,101618.99
2023-03-01T03:37:25.783Z,101625.23
2023-03-01T03:41:33.758Z,101616.88
2023-03-01T03:45:43.414Z,101616.26
2023-03-01T03:49:51.038Z,101607.70
2023-03-01T03:53:58.671Z,101603.64
2023-03-01T03:58:09.616Z,101598.63
2023-03-01T04:02:23.495Z,101593.48
2023-03-01T04:06:31.728Z,101592.28
2023-03-01T04:10:41.835Z,101584.80
2023-03-01T04:14:52.022Z,101588.05
2023-03-01T04:19:01.878Z,101589.20
2023-03-01T04:23:14.500Z,101588.10
2023-03-01T04:27:22.310Z,101584.98
2023-03-01T04:31:31.072Z,101588.99
2023-03-01T04:35:39.964Z,101591.39
2023-03-01T04:39:48.765Z,101587.55
2023-03-01T04:43:56.487Z,101587.95
2023-03-01T04:48:04.255Z,101586.92
2023-03-01T04:52:13.522Z,101585.23
2023-03-01T04:56:24.156Z,101581.98
2023-03-01T05:00:32.202Z,101588.71
2023-03-01T05:04:39.663Z,101598.26
2023-03-01T05:08:50.196Z,101598.23
2023-03-01T05:12:59.599Z,101599.23
2023-03-01T05:17:07.326Z,101600.84
2023-03-01T05:21:17.849Z,101602.89
2023-03-01T05:25:25.600Z,101603.61
2023-03-01T05:29:36.304Z,101595.91
2023-03-01T05:33:45.240Z,101598.44
2023-03-01T05:37:53.657Z,101593.64
2023-03-01T05:42:03.225Z,101597.02
2023-03-01T05:46:14.612Z,101610.36
2023-03-01T05:50:24.311Z,101604.82
2023-03-01T05:54:35.291Z,101598.99
2023-03-01T05:58:43.358Z,101605.10
2023-03-01T06:02:52.417Z,101601.73
2023-03-01T06:07:00.705Z,101602.91
2023-03-01T06:11:11.289Z,101605.41
2023-03-01T06:15:21.203Z,101610.17
2023-03-01T06:19:29.102Z,101607.67
2023-03-01T06:23:37.120Z,101603.17
2023-03-01T06:27:45.561Z,101607.33
2023-03-01T06:31:55.047Z,101611.32
2023-03-01T06:36:02.704Z,101607.06
2023-03-01T06:40:14.532Z,101612.58
2023-03-01T06:44:22.445Z,101605.82
2023-03-01T06:48:30.703Z,101602.48
2023-03-01T06:52:38.506Z,101598.36
2023-03-01T06:56:46.149Z,101598.33
2023-03-01T07:00:53.659Z,101598.35
2023-03-01T07:05:01.948Z,101591.85
2023-03-01T07:09:10.110Z,101590.18
2023-03-01T07:13:17.689Z,101590.73
2023-03-01T07:17:25.679Z,101588.48
2023-03-01T07:21:34.051Z,101589.23
2023-03-01T07:25:41.674Z,101588.92
2023-03-01T07:29:49.574Z,101592.08
2023-03-01T07:34:14.133Z,101585.37
2023-03-01T07:38:30.713Z,101587.33
2023-03-01T07:42:43.086Z,101583.70
2023-03-01T07:46:50.705Z,101591.85
2023-03-01T07:51:02.411Z,101584.59
2023-03-01T07:55:12.161Z,101586.17
2023-03-01T07:59:22.860Z,101582.70
2023-03-01T08:03:32.304Z,101576.27
2023-03-01T08:07:46.925Z,101563.45
2023-03-01T08:12:02.717Z,101557.00
2023-03-01T08:16:20.157Z,101547.45
2023-03-01T08:20:31.199Z,101542.39
2023-03-01T08:24:40.108Z,101536.55
2023-03-01T08:28:49.071Z,101530.45
2023-03-01T08:33:00.788Z,101522.63
2023-03-01T08:37:09.203Z,101524.13
2023-03-01T08:41:16.932Z,101526.03
2023-03-01T08:45:24.494Z,101535.77
2023-03-01T08:49:33.891Z,101536.25
2023-03-01T08:53:42.263Z,101532.31
2023-03-01T08:57:49.526Z,101534.28
2023-03-01T09:01:57.412Z,101535.33
2023-03-01T09:06:07.002Z,101536.96
2023-03-01T09:10:16.562Z,101540.58
2023-03-01T09:14:25.671Z,101543.52
2023-03-01T09:18:33.518Z,101544.89
2023-03-01T09:22:41.113Z,101539.96
2023-03-01T09:26:50.631Z,101540.58
2023-03-01T09:31:02.121Z,101537.29
2023-03-01T09:35:11.652Z,101532.77
2023-03-01T09:39:21.470Z,101524.48
2023-03-01T09:43:31.865Z,101522.81
2023-03-01T09:47:41.587Z,101520.27
2023-03-01T09:51:58.858Z,101520.16
2023-03-01T09:56:13.682Z,101519.23
2023-03-01T10:00:32.723Z,101521.59
2023-03-01T10:04:47.934Z,101519.56
2023-03-01T10:09:00.711Z,101516.11
2023-03-01T10:13:16.458Z,101514.56
2023-03-01T10:17:31.263Z,101511.80
2023-03-01T10:21:46.910Z,101510.11
2023-03-01T10:26:12.707Z,101505.92
2023-03-01T10:30:23.144Z,101499.64
2023-03-01T10:34:34.413Z,101488.30
2023-03-01T10:38:56.004Z,101481.34
2023-03-01T10:43:06.169Z,101482.23
2023-03-01T10:47:21.833Z,101477.73
2023-03-01T10:51:30.132Z,101476.52
2023-03-01T10:55:40.583Z,101474.09
2023-03-01T10:59:48.204Z,101466.73
2023-03-01T11:04:12.119Z,101462.02
2023-03-01T11:08:35.242Z,101456.27
2023-03-01T11:12:43.720Z,101447.21
2023-03-01T11:17:00.423Z,101440.38
2023-03-01T11:21:10.267Z,101446.16
2023-03-01T11:25:18.602Z,101450.20
2023-03-01T11:29:40.086Z,101447.77
2023-03-01T11:34:00.690Z,101442.67
2023-03-01T11:38:20.632Z,101443.90
2023-03-01T11:42:36.790Z,101432.70
2023-03-01T11:47:09.409Z,101437.23
2023-03-01T11:51:25.121Z,101435.65
2023-03-01T11:55:46.239Z,101423.02
2023-03-01T12:00:06.016Z,101421.77
2023-03-01T12:04:51.907Z,101412.08
2023-03-01T12:09:09.389Z,101402.75
2023-03-01T12:13:30.039Z,101402.52
2023-03-01T12:17:47.413Z,101398.23
2023-03-01T12:22:10.542Z,101390.11
2023-03-01T12:26:25.884Z,101387.04
2023-03-01T12:30:44.692Z,101388.73
2023-03-01T12:35:02.090Z,101395.86
2023-03-01T12:39:20.894Z,101389.54
2023-03-01T12:43:39.314Z,101381.60
2023-03-01T12:48:01.383Z,101370.30
2023-03-01T12:52:15.978Z,101365.52
2023-03-01T12:56:26.263Z,101363.16
2023-03-01T13:00:38.426Z,101350.97
2023-03-01T13:05:03.816Z,101348.93
2023-03-01T13:09:20.330Z,101342.55
2023-03-01T13:13:29.895Z,101342.44
2023-03-01T13:17:45.755Z,101339.52
2023-03-01T13:21:56.628Z,101330.96
2023-03-01T13:26:14.800Z,101326.48
2023-03-01T13:30:45.164Z,101329.88
2023-03-01T13:34:56.116Z,101331.52
2023-03-01T13:39:05.394Z,101325.73
2023-03-01T13:43:35.507Z,101319.09
2023-03-01T13:47:44.042Z,101313.67
2023-03-01T13:51:53.390Z,101308.36
2023-03-01T13:56:03.346Z,101306.34
2023-03-01T14:00:29.770Z,101304.88
2023-03-01T14:04:38.882Z,101302.98
2023-03-01T14:08:47.356Z,101291.48
2023-03-01T14:13:08.289Z,101288.56
2023-03-01T14:17:39.910Z,101288.02
2023-03-01T14:21:47.708Z,101281.39
2023-03-01T14:25:56.654Z,101275.20
2023-03-01T14:30:06.511Z,101269.98
2023-03-01T14:34:23.799Z,101264.56
2023-03-01T14:38:37.643Z,101253.58
2023-03-01T14:42:45.486Z,101249.27
2023-03-01T14:46:58.349Z,101241.23
2023-03-01T14:51:08.780Z,101237.00
2023-03-01T14:55:21.831Z,101233.64
2023-03-01T14:59:30.056Z,101230.49
2023-03-01T15:03:42.303Z,101227.51
2023-03-01T15:07:53.713Z,101225.45
2023-03-01T15:12:01.421Z,101230.30
2023-03-01T15:16:13.354Z,101234.09
2023-03-01T15:20:26.944Z,101231.73
2023-03-01T15:24:37.468Z,101235.61
2023-03-01T15:28:53.495Z,101236.86
2023-03-01T15:33:23.147Z,101233.80
2023-03-01T15:37:49.701Z,101234.64
2023-03-01T15:41:58.690Z,101229.73
2023-03-01T15:46:07.220Z,101233.29
2023-03-01T15:50:20.377Z,101237.61
2023-03-01T15:54:29.703Z,101235.94
2023-03-01T15:58:37.688Z,101237.67
2023-03-01T16:02:46.612Z,101239.78
2023-03-01T16:06:56.583Z,101241.85
2023-03-01T16:11:06.953Z,101241.98
2023-03-01T16:15:21.459Z,101242.50
2023-03-01T16:19:29.823Z,101241.27
2023-03-01T16:23:41.200Z,101241.14
2023-03-01T16:27:50.143Z,101247.48
2023-03-01T16:31:58.885Z,101250.90
2023-03-01T16:36:11.851Z,101251.14
2023-03-01T16:40:24.428Z,101254.68
2023-03-01T16:44:32.192Z,101258.01
2023-03-01T16:48:40.189Z,101263.94
2023-03-01T16:52:48.126Z,101269.98
2023-03-01T16:56:56.417Z,101276.39
2023-03-01T17:01:11.955Z,101286.84
2023-03-01T17:05:22.187Z,101290.95
2023-03-01T17:09:31.529Z,101297.70
2023-03-01T17:13:40.019Z,101295.48
2023-03-01T17:17:52.009Z,101295.91
2023-03-01T17:22:01.367Z,101298.09
2023-03-01T17:26:09.951Z,101300.05
2023-03-01T17:30:19.109Z,101300.27
2023-03-01T17:34:27.137Z,101297.14
2023-03-01T17:38:36.700Z,101299.06
2023-03-01T17:42:45.482Z,101300.84
2023-03-01T17:46:53.114Z,101302.77
2023-03-01T17:51:01.218Z,101301.36
2023-03-01T17:55:11.145Z,101302.23
2023-03-01T17:59:19.272Z,101305.90
2023-03-01T18:03:27.114Z,101303.09
2023-03-01T18:07:35.229Z,101302.02
2023-03-01T18:11:46.819Z,101303.92
2023-03-01T18:16:01.033Z,101308.44
2023-03-01T18:20:13.278Z,101309.30
2023-03-01T18:24:21.225Z,101307.69
2023-03-01T18:28:29.679Z,101300.67
2023-03-01T18:32:39.786Z,101297.48
2023-03-01T18:37:00.509Z,101292.40
2023-03-01T18:41:14.388Z,101289.73
2023-03-01T18:45:22.166Z,101286.92
2023-03-01T18:49:30.393Z,101287.60
2023-03-01T18:53:37.808Z,101284.94
2023-03-01T18:57:46.053Z,101284.04
2023-03-01T19:01:53.847Z,101278.92
2023-03-01T19:06:02.811Z,101270.50
2023-03-01T19:10:12.839Z,101273.20
2023-03-01T19:14:21.173Z,101275.60
2023-03-01T19:18:30.769Z,101276.77
2023-03-01T19:22:39.159Z,101280.98
2023-03-01T19:26:46.953Z,101283.29
2023-03-01T19:30:54.410Z,101279.98
2023-03-01T19:35:02.678Z,101279.27
2023-03-01T19:39:11.352Z,101272.08
2023-03-01T19:43:20.544Z,101269.94
2023-03-01T19:47:29.231Z,101273.91
2023-03-01T19:51:39.761Z,101271.05
2023-03-01T19:55:49.813Z,101271.66
2023-03-01T19:59:57.498Z,101271.40
2023-03-01T20:04:06.230Z,101274.96
2023-03-01T20:08:13.904Z,101276.10
2023-03-01T20:12:21.266Z,101280.36
2023-03-01T20:16:29.246Z,101285.34
2023-03-01T20:20:36.858Z,101293.26
2023-03-01T20:24:45.612Z,101292.66
2023-03-01T20:28:55.440Z,101286.31
2023-03-01T20:33:05.102Z,101286.45
2023-03-01T20:37:13.312Z,101285.41
2023-03-01T20:41:26.187Z,101284.93
2023-03-01T20:45:34.307Z,101281.13
2023-03-01T20:49:42.413Z,101281.66
2023-03-01T20:53:50.549Z,101282.49
2023-03-01T20:57:58.115Z,101272.64
2023-03-01T21:02:06.223Z,101265.38
2023-03-01T21:06:14.607Z,101263.32
2023-03-01T21:10:22.209Z,101266.64
2023-03-01T21:14:42.588Z,101271.89
2023-03-01T21:18:50.689Z,101269.70
2023-03-01T21:22:58.205Z,101262.52
2023-03-01T21:27:07.536Z,101260.94
2023-03-01T21:31:17.198Z,101264.06
2023-03-01T21:35:26.277Z,101261.84
2023-03-01T21:39:34.100Z,101258.38
2023-03-01T21:43:42.731Z,101256.63
2023-03-01T21:47:50.966Z,101257.58
2023-03-01T21:51:58.635Z,101262.33
2023-03-01T21:56:06.970Z,101260.10
2023-03-01T22:00:17.484Z,101259.45
2023-03-01T22:04:27.447Z,101256.72
2023-03-01T22:08:35.140Z,101258.16
2023-03-01T22:12:42.868Z,101252.27
2023-03-01T22:16:51.853Z,101249.93
2023-03-01T22:20:59.534Z,101251.23
2023-03-01T22:25:08.266Z,101252.75
2023-03-01T22:29:17.617Z,101257.08
2023-03-01T22:33:26.240Z,101260.59
2023-03-01T22:37:34.360Z,101263.39
2023-03-01T22:41:45.853Z,101257.71
2023-03-01T22:45:54.043Z,101256.08
2023-03-01T22:50:01.851Z,101257.00
2023-03-01T22:54:11.300Z,101251.84
2023-03-01T22:58:20.454Z,101253.47
2023-03-01T23:02:28.691Z,101251.59
2023-03-01T23:06:50.855Z,101249.88
2023-03-01T23:10:59.232Z,101244.85
2023-03-01T23:15:07.765Z,101245.05
2023-03-01T23:19:17.114Z,101246.75
2023-03-01T23:23:25.101Z,101247.77
2023-03-01T23:27:32.700Z,101251.85
2023-03-01T23:31:40.495Z,101249.19
2023-03-01T23:35:48.193Z,101246.88
2023-03-01T23:39:56.012Z,101244.03
2023-03-01T23:44:05.605Z,101246.20
2023-03-01T23:48:14.562Z,101243.34
2023-03-01T23:52:22.882Z,101244.79
2023-03-01T23:56:34.283Z,101243.54
